Time;durP1;ratioP1;P1;durP2;ratioP2;P2;SDS_P1;SDS_P2;PMS_P1;PMS_P2;Temp;Humidity;BMP_temperature;BMP_pressure;BME280_temperature;BME280_humidity;BME280_pressure;Samples;Min_cycle;Max_cycle;Signal;HPM_P1;HPM_P2
2024/03/05 00:01:28;;;;;;;73.03;24.60;;;;;;;-145.69;64.36;52321.59;5112216;28;20328;-82
2024/03/05 00:04:01;;;;;;;70.10;24.43;;;;;;;-145.69;64.39;52280.00;5113002;28;20571;-82
2024/03/05 00:06:29;;;;;;;68.80;25.33;;;;;;;-145.69;64.32;52325.56;5112533;28;20208;-82
2024/03/05 00:08:55;;;;;;;59.87;21.90;;;;;;;-145.69;64.34;52278.03;5112452;28;20383;-82
2024/03/05 00:11:22;;;;;;;65.10;24.43;;;;;;;-145.69;64.99;52297.84;5113009;28;20198;-82
2024/03/05 00:13:52;;;;;;;70.77;24.17;;;;;;;-145.69;64.74;52331.50;5112746;28;20209;-83
2024/03/05 00:16:20;;;;;;;65.47;23.07;;;;;;;-145.69;65.04;52285.97;5114462;28;20243;-82
2024/03/05 00:18:56;;;;;;;64.10;23.13;;;;;;;-145.69;64.56;52305.75;5123123;27;20203;-82
2024/03/05 00:21:25;;;;;;;67.10;22.33;;;;;;;-145.69;65.00;52343.38;5137296;27;20437;-82
2024/03/05 00:23:51;;;;;;;67.70;23.23;;;;;;;-145.69;64.87;52305.75;5137099;27;20206;-82
2024/03/05 00:26:20;;;;;;;66.57;23.63;;;;;;;-145.69;64.79;52313.69;5137144;27;20643;-82
2024/03/05 00:28:47;;;;;;;63.33;23.80;;;;;;;-145.69;64.86;52289.91;5137034;27;20309;-82
2024/03/05 00:31:16;;;;;;;63.77;23.33;;;;;;;-145.69;64.54;52283.97;5126674;27;20198;-82
2024/03/05 00:33:54;;;;;;;60.53;22.80;;;;;;;-145.69;64.86;52282.00;5116809;28;20213;-82
2024/03/05 00:36:21;;;;;;;62.63;22.57;;;;;;;-145.69;64.58;52285.97;5115943;28;20550;-83
2024/03/05 00:38:48;;;;;;;57.73;20.33;;;;;;;-145.69;64.89;52291.91;5115791;28;20198;-83
2024/03/05 00:41:16;;;;;;;58.77;21.87;;;;;;;-145.69;64.69;52317.66;5116373;28;20583;-82
2024/03/05 00:43:43;;;;;;;61.90;22.60;;;;;;;-145.69;64.82;52315.66;5114811;28;20205;-82
2024/03/05 00:46:09;;;;;;;56.20;20.17;;;;;;;-145.69;64.76;52325.56;5116147;28;20204;-82
2024/03/05 00:48:39;;;;;;;61.13;20.60;;;;;;;-145.69;64.74;52307.75;5116053;28;20220;-82
2024/03/05 00:51:12;;;;;;;59.97;21.53;;;;;;;-145.69;64.49;52282.00;5116059;28;20629;-82
2024/03/05 00:53:42;;;;;;;58.53;21.43;;;;;;;-145.69;64.73;52278.03;5112346;28;20236;-83
2024/03/05 00:56:09;;;;;;;53.13;20.77;;;;;;;-145.69;64.45;52287.94;5115948;28;20233;-82
2024/03/05 00:58:35;;;;;;;59.43;19.07;;;;;;;-145.69;64.76;52325.56;5116297;28;20201;-83
2024/03/05 01:01:07;;;;;;;58.97;20.93;;;;;;;-145.69;64.81;52333.47;5115388;28;20250;-82
2024/03/05 01:03:33;;;;;;;56.20;20.53;;;;;;;-145.69;65.36;52311.69;5116264;28;20217;-82
2024/03/05 01:06:00;;;;;;;63.37;22.30;;;;;;;-145.69;65.36;52321.59;5115791;28;20284;-82
2024/03/05 01:08:28;;;;;;;68.83;23.57;;;;;;;-145.69;65.43;52280.00;5115332;28;20213;-82
2024/03/05 01:11:05;;;;;;;55.20;21.43;;;;;;;-145.69;65.80;52309.72;5115352;28;20695;-82
2024/03/05 01:13:34;;;;;;;65.20;23.77;;;;;;;-145.69;65.48;52285.97;5114911;28;20519;-82
2024/03/05 01:16:01;;;;;;;67.40;24.47;;;;;;;-145.69;65.98;52313.69;5115699;28;20205;-83
2024/03/05 01:18:29;;;;;;;81.30;25.77;;;;;;;-145.69;65.76;52295.84;5115340;28;20284;-83
2024/03/05 01:20:56;;;;;;;74.30;25.87;;;;;;;-145.69;66.00;52329.53;5115651;28;20229;-83
2024/03/05 01:23:25;;;;;;;64.73;22.90;;;;;;;-145.69;65.73;52303.78;5115393;28;20201;-83
2024/03/05 01:25:53;;;;;;;68.33;22.30;;;;;;;-145.69;66.23;52303.78;5115090;28;20197;-82
2024/03/05 01:28:24;;;;;;;69.93;23.33;;;;;;;-145.69;66.39;52317.66;5115226;28;20552;-83
2024/03/05 01:30:51;;;;;;;67.93;24.90;;;;;;;-145.69;66.50;52282.00;5115042;28;20234;-83
2024/03/05 01:33:22;;;;;;;69.93;25.23;;;;;;;-145.69;66.48;52274.06;5115271;28;20197;-83
2024/03/05 01:35:54;;;;;;;66.17;23.73;;;;;;;-145.69;66.28;52299.81;5115593;28;20247;-82
2024/03/05 01:38:20;;;;;;;77.67;24.20;;;;;;;-145.69;66.21;52329.53;5121894;27;20759;-82
2024/03/05 01:40:50;;;;;;;73.50;24.97;;;;;;;-145.69;66.16;52289.91;5135916;27;20200;-82
2024/03/05 01:43:23;;;;;;;65.67;23.57;;;;;;;-145.69;66.09;52309.72;5119112;27;20656;-82
2024/03/05 01:45:53;;;;;;;67.27;22.97;;;;;;;-145.69;66.49;52325.56;5115278;28;20202;-83
2024/03/05 01:48:21;;;;;;;75.17;25.57;;;;;;;-145.69;66.27;52325.56;5114779;28;20209;-82
2024/03/05 01:50:55;;;;;;;66.00;22.77;;;;;;;-145.69;66.52;52299.81;5114235;28;20258;-82
2024/03/05 01:53:23;;;;;;;69.93;23.87;;;;;;;-145.69;66.46;52313.69;5114675;28;20233;-82
2024/03/05 01:55:53;;;;;;;60.80;22.07;;;;;;;-145.69;66.23;52321.59;5115102;28;20190;-82
2024/03/05 01:58:25;;;;;;;72.67;25.27;;;;;;;-145.69;66.55;52333.47;5115114;28;20197;-82
2024/03/05 02:00:57;;;;;;;62.67;20.83;;;;;;;-145.69;66.53;52357.25;5115126;28;20202;-82
2024/03/05 02:03:24;;;;;;;63.80;23.57;;;;;;;-145.69;66.96;52289.91;5114841;28;20197;-83
2024/03/05 02:05:56;;;;;;;57.27;21.60;;;;;;;-145.69;66.74;52349.31;5114208;28;20201;-84
2024/03/05 02:08:25;;;;;;;52.00;20.73;;;;;;;-145.69;66.57;52313.69;5121648;27;20197;-84
2024/03/05 02:10:52;;;;;;;55.73;21.00;;;;;;;-145.69;66.93;52303.78;5117372;27;20221;-84
2024/03/05 02:13:19;;;;;;;63.30;23.20;;;;;;;-145.69;67.25;52335.47;5113958;28;20198;-83
2024/03/05 02:15:48;;;;;;;50.10;18.93;;;;;;;-145.69;66.80;52293.88;5114316;27;20832;-84
2024/03/05 02:18:16;;;;;;;56.73;22.23;;;;;;;-145.69;67.17;52349.31;5114615;28;20198;-84
2024/03/05 02:20:43;;;;;;;62.20;22.07;;;;;;;-145.69;67.15;52305.75;5114520;28;20198;-84
2024/03/05 02:23:13;;;;;;;58.23;22.30;;;;;;;-145.69;67.11;52270.13;5113553;28;20202;-84
2024/03/05 02:25:44;;;;;;;56.67;20.90;;;;;;;-145.69;67.20;52343.38;5113625;28;20593;-84
2024/03/05 02:28:11;;;;;;;67.73;22.77;;;;;;;-145.69;67.59;52285.97;5114025;28;20198;-83
2024/03/05 02:30:43;;;;;;;65.67;23.60;;;;;;;-145.69;67.41;52321.59;5114126;28;20245;-84
2024/03/05 02:33:21;;;;;;;74.23;24.53;;;;;;;-145.69;67.42;52309.72;5114464;28;20197;-83
2024/03/05 02:35:57;;;;;;;71.73;23.27;;;;;;;-145.69;67.09;52349.31;5113960;28;20197;-83
2024/03/05 02:38:29;;;;;;;73.47;24.47;;;;;;;-145.69;67.13;52325.56;5112365;28;20201;-83
2024/03/05 02:40:58;;;;;;;62.10;22.03;;;;;;;-145.69;67.42;52299.81;5114242;28;20240;-84
2024/03/05 02:43:25;;;;;;;74.97;26.27;;;;;;;-145.69;67.11;52297.84;5113601;28;20224;-83
2024/03/05 02:45:51;;;;;;;75.27;24.33;;;;;;;-145.69;66.98;52335.47;5113987;28;20694;-84
2024/03/05 02:48:18;;;;;;;77.30;27.23;;;;;;;-145.69;66.90;52301.81;5113743;28;20285;-83
2024/03/05 02:50:51;;;;;;;72.30;25.20;;;;;;;-145.69;67.57;52291.91;5113769;28;20701;-83
2024/03/05 02:53:18;;;;;;;64.70;20.63;;;;;;;-145.69;67.65;52315.66;5125745;27;20319;-83
2024/03/05 02:55:48;;;;;;;68.77;22.63;;;;;;;-145.69;67.33;52301.81;5134326;27;20207;-83
2024/03/05 02:58:17;;;;;;;76.10;25.97;;;;;;;-145.69;67.10;52289.91;5134085;27;20208;-83
2024/03/05 03:00:44;;;;;;;65.63;23.33;;;;;;;-145.69;67.45;52315.66;5129553;27;20193;-84
2024/03/05 03:03:11;;;;;;;70.63;22.33;;;;;;;-145.69;67.69;52289.91;5112845;28;20209;-84
2024/03/05 03:05:40;;;;;;;86.43;26.17;;;;;;;-145.69;67.17;52333.47;5113653;28;20221;-83
2024/03/05 03:08:07;;;;;;;89.90;28.60;;;;;;;-145.69;67.50;52291.91;5113637;28;20198;-83
2024/03/05 03:10:33;;;;;;;74.87;25.07;;;;;;;-145.69;67.39;52323.59;5113361;28;20260;-84
2024/03/05 03:13:02;;;;;;;75.23;24.53;;;;;;;-145.69;67.00;52272.09;5113720;28;20266;-84
2024/03/05 03:15:30;;;;;;;77.10;26.77;;;;;;;-145.69;67.05;52345.38;5113451;27;20205;-84
2024/03/05 03:17:57;;;;;;;74.50;25.80;;;;;;;-145.69;67.08;52287.94;5113104;28;20624;-84
2024/03/05 03:20:32;;;;;;;67.07;23.13;;;;;;;-145.69;67.35;52305.75;5113579;28;20201;-84
2024/03/05 03:23:02;;;;;;;69.43;24.20;;;;;;;-145.69;67.19;52313.69;5122578;27;20260;-83
2024/03/05 03:25:31;;;;;;;62.10;22.90;;;;;;;-145.69;67.34;52301.81;5133487;27;20735;-84
2024/03/05 03:27:59;;;;;;;74.80;28.47;;;;;;;-145.69;68.81;52289.91;5132425;27;20425;-83
2024/03/05 03:30:29;;;;;;;87.30;28.60;;;;;;;-145.69;67.95;52278.03;5133050;27;20261;-84
2024/03/05 03:33:05;;;;;;;88.93;27.93;;;;;;;-145.69;67.80;52355.28;5109216;28;20225;-83
2024/03/05 03:35:38;;;;;;;78.70;25.77;;;;;;;-145.69;67.52;52297.84;5113204;28;20229;-84
2024/03/05 03:38:08;;;;;;;84.73;28.17;;;;;;;-145.69;68.22;52309.72;5112746;28;20213;-84
2024/03/05 03:40:38;;;;;;;80.07;27.20;;;;;;;-145.69;68.17;52305.75;5113080;28;20197;-83
2024/03/05 03:43:10;;;;;;;76.33;25.40;;;;;;;-145.69;67.97;52317.66;5112995;28;20201;-83
2024/03/05 03:45:40;;;;;;;72.13;22.70;;;;;;;-145.69;68.18;52305.75;5113213;28;20247;-83
2024/03/05 03:48:09;;;;;;;79.43;24.63;;;;;;;-145.69;68.30;52329.53;5113117;28;20201;-83
2024/03/05 03:50:37;;;;;;;85.90;25.23;;;;;;;-145.69;68.14;52333.47;5112828;28;20232;-83
2024/03/05 03:53:09;;;;;;;80.77;27.20;;;;;;;-145.69;67.92;52325.56;5122179;28;20220;-82
2024/03/05 03:55:37;;;;;;;69.23;24.20;;;;;;;-145.69;68.22;52315.66;5132966;28;20213;-83
2024/03/05 03:58:04;;;;;;;63.90;22.20;;;;;;;-145.69;67.97;52305.75;5133441;28;20203;-83
2024/03/05 04:00:32;;;;;;;73.07;23.67;;;;;;;-145.69;67.55;52305.75;5132397;28;20232;-82
2024/03/05 04:03:00;;;;;;;80.77;25.40;;;;;;;-145.69;67.67;52345.38;5112452;28;20204;-84
2024/03/05 04:05:29;;;;;;;69.37;23.30;;;;;;;-145.69;67.60;52333.47;5112773;28;20204;-84
2024/03/05 04:07:59;;;;;;;67.53;24.67;;;;;;;-145.69;67.67;52323.59;5112972;28;20201;-84
2024/03/05 04:10:26;;;;;;;67.53;23.87;;;;;;;-145.69;67.43;52335.47;5112731;28;20225;-84
2024/03/05 04:12:57;;;;;;;66.53;22.33;;;;;;;-145.69;67.12;52317.66;5112420;28;20197;-84
2024/03/05 04:15:24;;;;;;;69.00;23.57;;;;;;;-145.69;67.70;52323.59;5113044;28;20547;-84
2024/03/05 04:17:57;;;;;;;70.93;23.70;;;;;;;-145.69;67.90;52345.38;5112927;28;20300;-84
2024/03/05 04:20:26;;;;;;;64.27;25.17;;;;;;;-145.69;68.00;52321.59;5112755;28;20205;-84
2024/03/05 04:22:53;;;;;;;73.33;24.60;;;;;;;-145.69;67.72;52303.78;5112332;28;20200;-84
2024/03/05 04:25:30;;;;;;;63.63;22.03;;;;;;;-145.69;67.81;52289.91;5112931;28;20204;-83
2024/03/05 04:27:59;;;;;;;67.37;22.90;;;;;;;-145.69;67.80;52321.59;5112580;28;20827;-83
2024/03/05 04:30:26;;;;;;;68.20;23.23;;;;;;;-145.69;67.90;52317.66;5112242;28;20229;-84
2024/03/05 04:33:03;;;;;;;65.80;23.87;;;;;;;-145.69;67.77;52329.53;5112286;28;20292;-84
2024/03/05 04:35:32;;;;;;;70.60;23.17;;;;;;;-145.69;67.84;52321.59;5112691;28;20640;-84
2024/03/05 04:37:59;;;;;;;69.43;23.90;;;;;;;-145.69;67.55;52282.00;5112477;27;20238;-84
2024/03/05 04:40:29;;;;;;;74.67;26.03;;;;;;;-145.69;67.87;52327.53;5112643;28;20221;-83
2024/03/05 04:42:59;;;;;;;81.87;25.80;;;;;;;-145.69;67.59;52282.00;5112789;28;20595;-83
2024/03/05 04:45:26;;;;;;;71.40;24.67;;;;;;;-145.69;67.74;52305.75;5113319;28;20201;-84
2024/03/05 04:47:52;;;;;;;80.97;26.10;;;;;;;-145.69;67.80;52339.44;5112942;28;20205;-84
2024/03/05 04:50:20;;;;;;;89.90;27.50;;;;;;;-145.69;67.53;52331.50;5112321;28;20660;-83
2024/03/05 04:52:48;;;;;;;72.87;25.90;;;;;;;-145.69;67.98;52333.47;5112781;28;20264;-83
2024/03/05 04:55:15;;;;;;;77.80;25.20;;;;;;;-145.69;67.90;52297.84;5114789;27;20193;-83
2024/03/05 04:57:45;;;;;;;78.77;25.93;;;;;;;-145.69;68.26;52317.66;5111957;28;20204;-83
2024/03/05 05:00:23;;;;;;;68.60;23.50;;;;;;;-145.69;67.82;52321.59;5111967;28;20236;-83
2024/03/05 05:02:51;;;;;;;63.30;22.77;;;;;;;-145.69;67.80;52337.44;5114714;28;20195;-83
2024/03/05 05:05:17;;;;;;;61.70;21.03;;;;;;;-145.69;67.53;52347.34;5115673;28;20189;-83
2024/03/05 05:07:44;;;;;;;60.07;21.90;;;;;;;-145.69;67.90;52331.50;5116077;28;20200;-83
2024/03/05 05:10:12;;;;;;;50.60;18.13;;;;;;;-145.69;67.79;52278.03;5116157;28;20229;-83
2024/03/05 05:12:40;;;;;;;65.17;19.93;;;;;;;-145.69;67.84;52339.44;5114784;28;20630;-83
2024/03/05 05:15:07;;;;;;;47.40;18.30;;;;;;;-145.69;67.97;52347.34;5115906;28;20205;-83
2024/03/05 05:17:34;;;;;;;41.30;14.70;;;;;;;-145.69;68.12;52337.44;5116068;28;20197;-83
2024/03/05 05:20:00;;;;;;;39.83;14.87;;;;;;;-145.69;67.47;52339.44;5115865;28;20202;-83
2024/03/05 05:22:27;;;;;;;43.50;15.67;;;;;;;-145.69;67.96;52341.41;5116001;28;20201;-83
2024/03/05 05:24:53;;;;;;;41.00;15.47;;;;;;;-145.69;67.77;52278.03;5115333;28;20204;-83
2024/03/05 05:27:21;;;;;;;38.53;14.30;;;;;;;-145.69;67.99;52365.16;5116158;28;20208;-82
2024/03/05 05:29:48;;;;;;;37.90;14.50;;;;;;;-145.69;67.22;52351.31;5116604;28;20193;-83
2024/03/05 05:32:15;;;;;;;36.10;13.60;;;;;;;-145.69;67.58;52264.16;5116809;28;20308;-83
2024/03/05 05:34:41;;;;;;;38.33;14.07;;;;;;;-145.69;67.53;52317.66;5116495;28;20194;-83
2024/03/05 05:37:08;;;;;;;36.50;12.90;;;;;;;-145.69;67.44;52303.78;5116594;28;20648;-83
2024/03/05 05:39:34;;;;;;;44.93;15.00;;;;;;;-145.69;68.05;52331.50;5116024;28;20216;-83
2024/03/05 05:42:02;;;;;;;37.50;14.57;;;;;;;-145.69;67.70;52349.31;5116049;28;20201;-83
2024/03/05 05:44:30;;;;;;;42.17;16.10;;;;;;;-145.69;68.05;52345.38;5115864;27;20547;-83
2024/03/05 05:46:57;;;;;;;38.17;13.10;;;;;;;-145.69;67.92;52317.66;5115495;28;20536;-83
2024/03/05 05:49:23;;;;;;;38.33;14.60;;;;;;;-145.69;67.94;52333.47;5115398;28;20197;-82
2024/03/05 05:51:51;;;;;;;36.57;14.33;;;;;;;-145.69;67.59;52357.25;5114913;28;20610;-82
2024/03/05 05:54:18;;;;;;;35.53;14.70;;;;;;;-145.69;67.48;52331.50;5118359;27;20193;-83
2024/03/05 05:56:44;;;;;;;31.43;12.60;;;;;;;-145.69;67.27;52329.53;5115291;28;20201;-83
2024/03/05 05:59:12;;;;;;;36.07;13.73;;;;;;;-145.69;67.35;52305.75;5114704;28;20205;-82
2024/03/05 06:01:40;;;;;;;40.77;13.87;;;;;;;-145.69;67.77;52333.47;5114224;28;20559;-82
2024/03/05 06:04:07;;;;;;;28.87;12.30;;;;;;;-145.69;67.43;52323.59;5114432;27;20292;-82
2024/03/05 06:06:34;;;;;;;36.53;14.87;;;;;;;-145.69;67.68;52309.72;5115054;28;20220;-82
2024/03/05 06:09:08;;;;;;;34.63;14.40;;;;;;;-145.69;67.38;52299.81;5114917;28;20236;-82
2024/03/05 06:11:34;;;;;;;32.87;12.80;;;;;;;-145.69;67.54;52297.84;5114627;28;20270;-82
2024/03/05 06:14:01;;;;;;;33.37;12.93;;;;;;;-145.69;67.73;52321.59;5114549;28;20572;-82
2024/03/05 06:16:28;;;;;;;34.27;13.00;;;;;;;-145.69;67.53;52319.63;5114231;28;20201;-83
2024/03/05 06:18:56;;;;;;;34.63;13.13;;;;;;;-145.69;67.01;52309.72;5114109;28;20209;-83
2024/03/05 06:21:23;;;;;;;34.53;13.53;;;;;;;-145.69;67.10;52317.66;5114583;28;20602;-82
2024/03/05 06:23:50;;;;;;;36.77;14.00;;;;;;;-145.69;67.11;52327.53;5114384;28;20204;-82
2024/03/05 06:26:16;;;;;;;33.13;13.87;;;;;;;-145.69;67.65;52335.47;5114391;28;20674;-82
2024/03/05 06:28:43;;;;;;;29.97;13.27;;;;;;;-145.69;66.81;52309.72;5114214;28;20209;-81
2024/03/05 06:31:11;;;;;;;32.63;12.30;;;;;;;-145.69;66.72;52309.72;5113905;28;20683;-82
2024/03/05 06:33:37;;;;;;;31.67;12.70;;;;;;;-145.69;66.85;52341.41;5093944;28;20606;-82
2024/03/05 06:36:06;;;;;;;25.93;11.70;;;;;;;-145.69;67.07;52299.81;5093781;28;20255;-82
2024/03/05 06:38:33;;;;;;;30.77;11.43;;;;;;;-145.69;66.39;52333.47;5093926;28;20210;-82
2024/03/05 06:41:03;;;;;;;29.87;12.07;;;;;;;-145.69;66.79;52329.53;5103256;28;20545;-82
2024/03/05 06:43:33;;;;;;;26.57;10.63;;;;;;;-145.69;66.63;52327.53;5114058;28;20678;-81
2024/03/05 06:46:00;;;;;;;28.37;10.83;;;;;;;-145.69;66.81;52361.22;5113739;28;20598;-82
2024/03/05 06:48:26;;;;;;;26.83;12.20;;;;;;;-145.69;66.85;52325.56;5114313;28;20201;-82
2024/03/05 06:50:57;;;;;;;28.50;11.57;;;;;;;-145.69;66.79;52305.75;5113994;28;20236;-82
2024/03/05 06:58:54;;;;;;;29.07;12.03;;;;;;;-145.69;66.15;52335.47;5114048;28;20193;-82
2024/03/05 07:01:22;;;;;;;28.57;12.00;;;;;;;-145.69;66.09;52309.72;5113942;28;20205;-85
2024/03/05 07:03:49;;;;;;;26.80;10.67;;;;;;;-145.69;65.91;52329.53;5114027;28;20201;-83
2024/03/05 07:06:18;;;;;;;25.80;10.73;;;;;;;-145.69;66.00;52337.44;5113336;28;20541;-83
2024/03/05 07:08:48;;;;;;;24.57;9.93;;;;;;;-145.69;66.58;52309.72;5113897;28;20197;-83
2024/03/05 07:11:15;;;;;;;21.47;9.83;;;;;;;-145.69;66.03;52321.59;5113011;27;21766;-83
2024/03/05 07:13:47;;;;;;;27.73;11.30;;;;;;;-145.69;66.28;52285.97;5113325;28;20219;-82
2024/03/05 07:16:15;;;;;;;21.30;9.60;;;;;;;-145.69;66.38;52339.44;5114140;28;20598;-83
2024/03/05 07:18:42;;;;;;;25.67;9.60;;;;;;;-145.69;66.11;52278.03;5114101;28;20200;-83
2024/03/05 07:21:09;;;;;;;20.47;9.47;;;;;;;-145.69;66.01;52329.53;5113454;28;20204;-83
2024/03/05 07:23:36;;;;;;;23.83;10.10;;;;;;;-145.69;65.70;52335.47;5113978;28;20205;-83
2024/03/05 07:26:04;;;;;;;26.00;10.87;;;;;;;-145.69;65.31;52319.63;5113403;28;20649;-83
2024/03/05 07:28:31;;;;;;;26.10;12.03;;;;;;;-145.69;65.28;52333.47;5113650;28;20205;-83
2024/03/05 07:30:57;;;;;;;23.87;10.27;;;;;;;-145.69;64.96;52303.78;5113407;28;20621;-83
2024/03/05 07:33:24;;;;;;;22.97;10.20;;;;;;;-145.69;64.69;52313.69;5113695;28;20207;-83
2024/03/05 07:35:50;;;;;;;25.03;10.40;;;;;;;-145.69;65.17;52329.53;5113624;28;20297;-83
2024/03/05 07:38:17;;;;;;;21.20;9.20;;;;;;;-145.69;64.69;52297.84;5113862;28;20201;-83
2024/03/05 07:40:45;;;;;;;25.30;10.63;;;;;;;-145.69;64.60;52311.69;5113698;28;20293;-83
2024/03/05 07:43:13;;;;;;;21.83;10.47;;;;;;;-145.69;64.16;52313.69;5097408;28;20185;-81
2024/03/05 07:45:40;;;;;;;23.27;10.13;;;;;;;-145.69;64.09;52325.56;5113818;28;20193;-84
2024/03/05 07:48:07;;;;;;;22.50;10.77;;;;;;;-145.69;63.99;52280.00;5113751;28;20208;-83
2024/03/05 07:50:34;;;;;;;22.47;10.40;;;;;;;-145.69;63.85;52317.66;5113883;28;20243;-83
2024/03/05 07:53:02;;;;;;;26.27;11.27;;;;;;;-145.69;63.51;52305.75;5113123;28;20645;-83
2024/03/05 07:55:28;;;;;;;23.33;9.80;;;;;;;-145.69;63.90;52301.81;5114176;28;20201;-84
2024/03/05 07:57:56;;;;;;;26.10;10.23;;;;;;;-145.69;63.64;52289.91;5113590;28;20229;-84
2024/03/05 08:00:25;;;;;;;23.07;10.07;;;;;;;-145.69;63.36;52307.75;5113417;28;20205;-82
2024/03/05 08:02:53;;;;;;;21.77;9.67;;;;;;;-145.69;63.43;52291.91;5113197;28;20212;-84
2024/03/05 08:05:22;;;;;;;23.00;10.17;;;;;;;-145.69;63.04;52299.81;5113218;28;20304;-83
2024/03/05 08:07:49;;;;;;;22.43;9.20;;;;;;;-145.69;63.01;52315.66;5113434;28;20201;-83
2024/03/05 08:10:16;;;;;;;23.37;11.30;;;;;;;-145.69;62.94;52282.00;5113341;28;20671;-84
2024/03/05 08:12:44;;;;;;;22.67;9.80;;;;;;;-145.69;63.51;52305.75;5113671;28;20357;-84
2024/03/05 08:15:13;;;;;;;23.33;11.03;;;;;;;-145.69;63.66;52323.59;5113864;28;20205;-84
2024/03/05 08:17:45;;;;;;;28.13;10.80;;;;;;;-145.69;64.14;52325.56;5114267;28;20771;-84
2024/03/05 08:20:13;;;;;;;23.67;11.33;;;;;;;-145.69;63.57;52289.91;5115051;28;20242;-84
2024/03/05 08:22:39;;;;;;;23.40;11.10;;;;;;;-145.69;63.34;52282.00;5114353;28;20194;-84
2024/03/05 08:25:09;;;;;;;19.80;9.37;;;;;;;-145.69;63.64;52313.69;5110362;28;20201;-82
2024/03/05 08:27:38;;;;;;;24.03;9.40;;;;;;;-145.69;63.17;52323.59;5112698;28;20201;-82
2024/03/05 08:30:07;;;;;;;22.17;9.93;;;;;;;-145.69;62.58;52311.69;5112223;28;20197;-82
2024/03/05 08:32:34;;;;;;;25.50;11.17;;;;;;;-145.69;62.53;52325.56;5112677;28;20230;-83
2024/03/05 08:35:02;;;;;;;23.93;9.87;;;;;;;-145.69;62.33;52301.81;5112270;28;20201;-83
2024/03/05 08:37:28;;;;;;;24.17;10.33;;;;;;;-145.69;62.87;52341.41;5114424;28;20649;-82
2024/03/05 08:39:55;;;;;;;23.37;10.03;;;;;;;-145.69;62.32;52329.53;5115984;28;20197;-82
2024/03/05 08:42:21;;;;;;;22.63;9.57;;;;;;;-145.69;62.90;52315.66;5116191;28;20197;-82
2024/03/05 08:44:48;;;;;;;24.83;12.90;;;;;;;-145.69;63.49;52321.59;5115603;28;20435;-82
2024/03/05 08:47:17;;;;;;;22.30;10.70;;;;;;;-145.69;62.90;52258.22;5116238;28;20676;-83
2024/03/05 08:49:44;;;;;;;22.20;10.50;;;;;;;-145.69;61.59;52309.72;5116266;28;20212;-83
2024/03/05 08:52:12;;;;;;;22.67;10.00;;;;;;;-145.69;61.51;52309.72;5115579;28;20323;-82
2024/03/05 08:54:39;;;;;;;21.67;10.40;;;;;;;-145.69;61.53;52270.13;5095697;28;20700;-82
2024/03/05 08:57:06;;;;;;;20.93;9.83;;;;;;;-145.69;60.94;52343.38;5110856;28;20259;-82
2024/03/05 08:59:32;;;;;;;18.57;10.17;;;;;;;-145.69;60.88;52295.84;5116283;28;20205;-83
2024/03/05 09:02:00;;;;;;;18.47;9.13;;;;;;;-145.69;60.39;52303.78;5115878;28;20652;-81
2024/03/05 09:04:27;;;;;;;15.80;8.53;;;;;;;-145.69;60.29;52301.81;5116070;28;20220;-81
2024/03/05 09:06:54;;;;;;;17.93;8.90;;;;;;;-145.69;60.01;52297.84;5116053;28;20197;-82
2024/03/05 09:09:22;;;;;;;18.57;8.67;;;;;;;-145.69;59.01;52287.94;5115821;28;20197;-82
2024/03/05 09:11:48;;;;;;;18.27;9.10;;;;;;;-145.69;58.33;52293.88;5115792;28;20229;-81
2024/03/05 09:14:15;;;;;;;19.57;9.47;;;;;;;-145.69;58.62;52321.59;5115818;28;20296;-81
2024/03/05 09:16:41;;;;;;;25.50;10.03;;;;;;;-145.69;58.83;52355.28;5115480;28;20205;-80
2024/03/05 09:19:10;;;;;;;19.17;8.67;;;;;;;-145.69;58.30;52297.84;5115382;28;20243;-80
2024/03/05 09:21:36;;;;;;;18.30;7.37;;;;;;;-145.69;57.90;52274.06;5115518;28;20617;-81
2024/03/05 09:24:06;;;;;;;16.67;8.33;;;;;;;-145.69;58.93;52293.88;5115346;28;20198;-81
2024/03/05 09:26:35;;;;;;;14.87;7.23;;;;;;;-145.69;58.83;52307.75;5115630;28;20201;-82
2024/03/05 09:29:01;;;;;;;15.50;7.87;;;;;;;-145.69;57.93;52309.72;5115717;28;20240;-81
2024/03/05 09:31:28;;;;;;;12.17;5.53;;;;;;;-145.69;57.72;52301.81;5115548;28;20537;-82
2024/03/05 09:33:55;;;;;;;12.03;6.40;;;;;;;-145.69;58.86;52307.75;5115167;28;20201;-82
2024/03/05 09:36:23;;;;;;;8.53;4.23;;;;;;;-145.69;58.71;52331.50;5115399;28;20201;-83
2024/03/05 09:38:49;;;;;;;7.03;3.57;;;;;;;-145.69;58.66;52321.59;5115450;28;20197;-82
2024/03/05 09:41:17;;;;;;;6.67;3.90;;;;;;;-145.69;59.21;52285.97;5115420;28;20202;-82
2024/03/05 09:43:45;;;;;;;4.90;2.77;;;;;;;-145.69;60.39;52309.72;5115112;28;20207;-81
2024/03/05 09:46:14;;;;;;;5.07;3.10;;;;;;;-145.69;60.38;52293.88;5115140;27;20292;-80
2024/03/05 09:48:41;;;;;;;6.67;2.83;;;;;;;-145.69;61.38;52341.41;5114864;28;20238;-79
2024/03/05 09:51:09;;;;;;;5.37;3.17;;;;;;;-145.69;61.42;52301.81;5115033;27;20201;-80
2024/03/05 09:53:36;;;;;;;4.47;2.70;;;;;;;-145.69;62.02;52333.47;5113960;28;20328;-82
2024/03/05 09:56:04;;;;;;;4.57;2.70;;;;;;;-145.69;61.52;52319.63;5115173;28;20196;-81
2024/03/05 09:58:35;;;;;;;2.43;1.87;;;;;;;-145.69;61.01;52321.59;5114998;28;20241;-79
2024/03/05 10:01:05;;;;;;;2.50;1.80;;;;;;;-145.69;60.61;52282.00;5114934;28;20200;-80
2024/03/05 10:03:34;;;;;;;3.03;2.07;;;;;;;-145.69;60.34;52325.56;5113965;28;20540;-80
2024/03/05 10:06:00;;;;;;;3.17;1.90;;;;;;;-145.69;60.29;52321.59;5114811;28;20243;-80
2024/03/05 10:08:27;;;;;;;3.90;1.70;;;;;;;-145.69;61.07;52335.47;5114946;28;20194;-83
2024/03/05 10:10:59;;;;;;;2.07;1.50;;;;;;;-145.69;59.85;52283.97;5114420;28;20224;-82
2024/03/05 10:13:29;;;;;;;1.57;1.20;;;;;;;-145.69;59.42;52335.47;5114561;28;20700;-82
2024/03/05 10:16:14;;;;;;;2.97;1.60;;;;;;;-145.69;59.52;52305.75;5114850;28;20197;-82
2024/03/05 10:18:41;;;;;;;3.70;1.73;;;;;;;-145.69;60.01;52305.75;5114494;28;20209;-82
2024/03/05 10:21:22;;;;;;;4.17;1.50;;;;;;;-145.69;59.46;52307.75;5114240;28;20197;-80
2024/03/05 10:23:57;;;;;;;3.40;2.10;;;;;;;-145.69;60.39;52319.63;5114297;28;20217;-81
2024/03/05 10:26:27;;;;;;;2.60;2.10;;;;;;;-145.69;60.39;52309.72;5114360;28;20200;-83
2024/03/05 10:28:55;;;;;;;2.97;2.03;;;;;;;-145.69;60.06;52339.44;5113910;28;20303;-84
2024/03/05 10:31:25;;;;;;;3.00;1.67;;;;;;;-145.69;60.68;52311.69;5114583;28;20251;-81
2024/03/05 10:33:54;;;;;;;2.40;1.63;;;;;;;-145.69;60.29;52305.75;5114298;28;20222;-81
2024/03/05 10:36:24;;;;;;;2.77;1.70;;;;;;;-145.69;59.56;52301.81;5114262;28;20258;-81
2024/03/05 10:38:53;;;;;;;2.20;1.70;;;;;;;-145.69;59.84;52305.75;5114013;28;20548;-81
2024/03/05 10:41:21;;;;;;;2.87;1.90;;;;;;;-145.69;58.70;52297.84;5113725;28;20201;-81
2024/03/05 10:43:50;;;;;;;2.83;1.80;;;;;;;-145.69;58.41;52278.03;5114422;28;20205;-80
2024/03/05 10:46:18;;;;;;;1.90;1.70;;;;;;;-145.69;57.70;52297.84;5113732;28;20197;-81
2024/03/05 10:48:47;;;;;;;1.73;1.33;;;;;;;-145.69;56.71;52276.06;5114086;28;20289;-81
2024/03/05 10:51:16;;;;;;;2.67;1.47;;;;;;;-145.69;56.35;52289.91;5114126;28;20197;-81
2024/03/05 10:53:42;;;;;;;1.47;1.23;;;;;;;-145.69;55.81;52295.84;5113446;28;20229;-81
2024/03/05 10:56:09;;;;;;;1.80;1.30;;;;;;;-145.69;56.88;52301.81;5113692;28;20208;-81
2024/03/05 10:59:11;;;;;;;1.57;1.27;;;;;;;-145.69;56.90;52315.66;5113943;28;20197;-81
2024/03/05 11:01:36;;;;;;;2.13;1.40;;;;;;;-145.69;56.40;52319.63;5113239;28;20241;-83
2024/03/05 11:04:11;;;;;;;1.33;1.23;;;;;;;-145.69;55.96;52327.53;5113462;28;20306;-81
2024/03/05 11:06:40;;;;;;;1.53;1.20;;;;;;;-145.69;55.89;52303.78;5113338;28;20659;-83
2024/03/05 11:09:07;;;;;;;1.10;1.00;;;;;;;-145.69;55.57;52301.81;5113753;28;20656;-83
2024/03/05 11:11:35;;;;;;;2.50;1.17;;;;;;;-145.69;55.92;52319.63;5113426;28;20264;-84
2024/03/05 11:14:04;;;;;;;1.30;1.20;;;;;;;-145.69;56.36;52297.84;5113425;28;20225;-81
2024/03/05 11:16:33;;;;;;;1.07;1.00;;;;;;;-145.69;56.58;52343.38;5113458;28;20206;-81